ボゴタ の空港の天気 - METARとTAF

エルドラド国際空港(ボコダ) ( SKBO / BOG ) - コロンビア ボゴタ
飛行場実況気象(Metar)
観測時間07/22 13:00 COT (07/22 18:00 UTC)
風向・風速南東 5m/s
視程10km以上
天気現象周辺でしゅう雨
全天の4割程度の雲 雲底高度 700m
全天の8割程度の雲 雲底高度 1520m
気温-
湿度-
気圧1027hPa
METARSKBO 221800Z 13010KT 090V160 9999 VCSH SCT023 BKN050 18/08A3032
過去の天気等 Google飛行場航空写真 Wunderground天気予報

過去48時間のMETAR

飛行場予報(TAF)
発表時間: 7/22 12:00 COT (7/22 17:00 UTC)
予報対象時間: 22日13時 COT ~ 23日13時 COT
風向・風速東南東 8m/s
視程10km以上
全天の8割程度の雲 雲底高度 610m
22日13時 COT ~ 22日15時 COT に一時的に
天気現象周辺でしゅう雨
22日14時 COT ~ 22日16時 COT に徐々に
風向・風速東南東 5m/s
22日16時 COT から 確率 40% で
視程9000m
天気現象霧雨
全天の4割程度の塔状積雲 雲底高度 520m
23日4時 COT ~ 23日8時 COT に一時的に
視程8000m
全天の4割程度の雲 雲底高度 460m
TAF SKBO 221700Z 2218/2318 11015KT 9999 BKN020
TEMPO 2218/2220 VCSH
BECMG 2219/2221 12010KT
PROB40 2221/2302 9000 DZ SCT017TCU
TEMPO 2309/2313 8000 SCT015 TX19/2218Z TN10/2311Z